sensor_id;sensor_type;location;lat;lon;timestamp;P1;durP1;ratioP1;P2;durP2;ratioP2
79348;SDS011;68817;48.110;11.660;2024-01-15T00:02:05;5.35;;;2.63;;
79348;SDS011;68817;48.110;11.660;2024-01-15T00:04:31;5.57;;;2.75;;
79348;SDS011;68817;48.110;11.660;2024-01-15T00:07:01;6.20;;;2.53;;
79348;SDS011;68817;48.110;11.660;2024-01-15T00:09:27;4.32;;;3.08;;
79348;SDS011;68817;48.110;11.660;2024-01-15T00:11:52;7.20;;;3.10;;
79348;SDS011;68817;48.110;11.660;2024-01-15T00:14:18;6.78;;;3.58;;
79348;SDS011;68817;48.110;11.660;2024-01-15T00:16:45;5.97;;;3.38;;
79348;SDS011;68817;48.110;11.660;2024-01-15T00:19:10;5.50;;;3.40;;
79348;SDS011;68817;48.110;11.660;2024-01-15T00:21:36;6.55;;;3.10;;
79348;SDS011;68817;48.110;11.660;2024-01-15T00:24:01;6.93;;;3.40;;
79348;SDS011;68817;48.110;11.660;2024-01-15T00:26:27;5.75;;;3.03;;
79348;SDS011;68817;48.110;11.660;2024-01-15T00:28:52;6.00;;;3.10;;
79348;SDS011;68817;48.110;11.660;2024-01-15T00:31:17;7.38;;;3.42;;
79348;SDS011;68817;48.110;11.660;2024-01-15T00:33:43;6.53;;;4.05;;
79348;SDS011;68817;48.110;11.660;2024-01-15T00:36:08;6.82;;;3.30;;
79348;SDS011;68817;48.110;11.660;2024-01-15T00:38:34;6.63;;;3.65;;
79348;SDS011;68817;48.110;11.660;2024-01-15T00:40:59;7.70;;;3.55;;
79348;SDS011;68817;48.110;11.660;2024-01-15T00:43:24;6.50;;;3.70;;
79348;SDS011;68817;48.110;11.660;2024-01-15T00:45:50;7.63;;;3.72;;
79348;SDS011;68817;48.110;11.660;2024-01-15T00:48:15;7.03;;;3.50;;
79348;SDS011;68817;48.110;11.660;2024-01-15T00:50:41;8.35;;;4.18;;
79348;SDS011;68817;48.110;11.660;2024-01-15T00:53:06;6.80;;;3.88;;
79348;SDS011;68817;48.110;11.660;2024-01-15T00:55:31;7.97;;;4.22;;
79348;SDS011;68817;48.110;11.660;2024-01-15T00:57:57;8.13;;;3.97;;
79348;SDS011;68817;48.110;11.660;2024-01-15T01:00:22;7.63;;;3.40;;
79348;SDS011;68817;48.110;11.660;2024-01-15T01:02:48;8.73;;;4.53;;
79348;SDS011;68817;48.110;11.660;2024-01-15T01:05:13;6.75;;;4.15;;
79348;SDS011;68817;48.110;11.660;2024-01-15T01:07:38;9.13;;;4.68;;
79348;SDS011;68817;48.110;11.660;2024-01-15T01:10:04;6.78;;;3.90;;
79348;SDS011;68817;48.110;11.660;2024-01-15T01:12:30;7.30;;;3.85;;
79348;SDS011;68817;48.110;11.660;2024-01-15T01:14:55;9.70;;;4.60;;
79348;SDS011;68817;48.110;11.660;2024-01-15T01:17:21;9.25;;;4.90;;
79348;SDS011;68817;48.110;11.660;2024-01-15T01:19:46;8.57;;;4.28;;
79348;SDS011;68817;48.110;11.660;2024-01-15T01:22:12;8.93;;;5.60;;
79348;SDS011;68817;48.110;11.660;2024-01-15T01:24:37;10.07;;;5.55;;
79348;SDS011;68817;48.110;11.660;2024-01-15T01:27:03;11.57;;;5.03;;
79348;SDS011;68817;48.110;11.660;2024-01-15T01:29:28;11.63;;;5.95;;
79348;SDS011;68817;48.110;11.660;2024-01-15T01:31:54;9.20;;;5.53;;
79348;SDS011;68817;48.110;11.660;2024-01-15T01:34:19;10.32;;;5.60;;
79348;SDS011;68817;48.110;11.660;2024-01-15T01:36:45;9.77;;;5.10;;
79348;SDS011;68817;48.110;11.660;2024-01-15T01:39:10;10.45;;;5.70;;
79348;SDS011;68817;48.110;11.660;2024-01-15T01:41:36;10.25;;;5.40;;
79348;SDS011;68817;48.110;11.660;2024-01-15T01:44:03;12.10;;;5.00;;
79348;SDS011;68817;48.110;11.660;2024-01-15T01:46:28;12.07;;;6.22;;
79348;SDS011;68817;48.110;11.660;2024-01-15T01:48:54;10.07;;;5.50;;
79348;SDS011;68817;48.110;11.660;2024-01-15T01:51:20;11.75;;;5.35;;
79348;SDS011;68817;48.110;11.660;2024-01-15T01:53:47;12.10;;;5.80;;
79348;SDS011;68817;48.110;11.660;2024-01-15T01:56:12;12.20;;;5.45;;
79348;SDS011;68817;48.110;11.660;2024-01-15T01:58:38;9.85;;;5.22;;
79348;SDS011;68817;48.110;11.660;2024-01-15T02:01:04;10.93;;;5.28;;
79348;SDS011;68817;48.110;11.660;2024-01-15T02:03:30;11.32;;;5.50;;
79348;SDS011;68817;48.110;11.660;2024-01-15T02:05:55;10.05;;;4.90;;
79348;SDS011;68817;48.110;11.660;2024-01-15T02:08:21;10.32;;;5.38;;
79348;SDS011;68817;48.110;11.660;2024-01-15T02:10:47;9.57;;;5.45;;
79348;SDS011;68817;48.110;11.660;2024-01-15T02:13:12;11.07;;;5.68;;
79348;SDS011;68817;48.110;11.660;2024-01-15T02:15:38;9.10;;;4.70;;
79348;SDS011;68817;48.110;11.660;2024-01-15T02:18:04;10.38;;;5.25;;
79348;SDS011;68817;48.110;11.660;2024-01-15T02:20:31;9.93;;;5.07;;
79348;SDS011;68817;48.110;11.660;2024-01-15T02:23:09;7.82;;;4.78;;
79348;SDS011;68817;48.110;11.660;2024-01-15T02:25:39;11.15;;;5.55;;
79348;SDS011;68817;48.110;11.660;2024-01-15T02:28:06;11.38;;;4.97;;
79348;SDS011;68817;48.110;11.660;2024-01-15T02:30:34;9.38;;;5.03;;
79348;SDS011;68817;48.110;11.660;2024-01-15T02:33:03;9.95;;;5.25;;
79348;SDS011;68817;48.110;11.660;2024-01-15T02:35:28;10.55;;;5.00;;
79348;SDS011;68817;48.110;11.660;2024-01-15T02:37:53;9.30;;;4.93;;
79348;SDS011;68817;48.110;11.660;2024-01-15T02:40:19;10.55;;;4.88;;
79348;SDS011;68817;48.110;11.660;2024-01-15T02:42:44;12.77;;;5.35;;
79348;SDS011;68817;48.110;11.660;2024-01-15T02:45:10;11.73;;;5.25;;
79348;SDS011;68817;48.110;11.660;2024-01-15T02:47:35;10.30;;;5.57;;
79348;SDS011;68817;48.110;11.660;2024-01-15T02:50:00;8.90;;;4.50;;
79348;SDS011;68817;48.110;11.660;2024-01-15T02:52:26;12.38;;;6.18;;
79348;SDS011;68817;48.110;11.660;2024-01-15T02:54:51;9.90;;;4.85;;
79348;SDS011;68817;48.110;11.660;2024-01-15T02:57:16;10.63;;;5.63;;
79348;SDS011;68817;48.110;11.660;2024-01-15T02:59:42;8.40;;;4.63;;
79348;SDS011;68817;48.110;11.660;2024-01-15T03:02:07;11.32;;;4.80;;
79348;SDS011;68817;48.110;11.660;2024-01-15T03:04:33;8.90;;;4.68;;
79348;SDS011;68817;48.110;11.660;2024-01-15T03:06:58;9.98;;;5.72;;
79348;SDS011;68817;48.110;11.660;2024-01-15T03:09:23;10.15;;;5.40;;
79348;SDS011;68817;48.110;11.660;2024-01-15T03:11:49;8.65;;;4.13;;
79348;SDS011;68817;48.110;11.660;2024-01-15T03:14:14;11.52;;;5.07;;
79348;SDS011;68817;48.110;11.660;2024-01-15T03:16:39;9.23;;;4.03;;
79348;SDS011;68817;48.110;11.660;2024-01-15T03:19:05;9.70;;;4.55;;
79348;SDS011;68817;48.110;11.660;2024-01-15T03:21:30;11.93;;;5.45;;
79348;SDS011;68817;48.110;11.660;2024-01-15T03:23:56;11.45;;;4.53;;
79348;SDS011;68817;48.110;11.660;2024-01-15T03:26:21;7.60;;;4.43;;
79348;SDS011;68817;48.110;11.660;2024-01-15T03:28:46;10.30;;;4.82;;
79348;SDS011;68817;48.110;11.660;2024-01-15T03:31:12;6.93;;;3.95;;
79348;SDS011;68817;48.110;11.660;2024-01-15T03:33:37;10.00;;;4.63;;
79348;SDS011;68817;48.110;11.660;2024-01-15T03:36:03;11.55;;;5.13;;
79348;SDS011;68817;48.110;11.660;2024-01-15T03:38:28;7.82;;;4.43;;
79348;SDS011;68817;48.110;11.660;2024-01-15T03:40:54;9.20;;;4.43;;
79348;SDS011;68817;48.110;11.660;2024-01-15T03:43:19;8.48;;;3.88;;
79348;SDS011;68817;48.110;11.660;2024-01-15T03:45:44;10.43;;;5.13;;
79348;SDS011;68817;48.110;11.660;2024-01-15T03:48:11;8.02;;;3.78;;
79348;SDS011;68817;48.110;11.660;2024-01-15T03:50:36;7.85;;;4.00;;
79348;SDS011;68817;48.110;11.660;2024-01-15T03:53:01;9.52;;;4.53;;
79348;SDS011;68817;48.110;11.660;2024-01-15T03:55:27;9.68;;;5.13;;
79348;SDS011;68817;48.110;11.660;2024-01-15T03:57:52;8.43;;;4.50;;
79348;SDS011;68817;48.110;11.660;2024-01-15T04:00:18;9.73;;;4.50;;
79348;SDS011;68817;48.110;11.660;2024-01-15T04:02:43;9.18;;;4.07;;
79348;SDS011;68817;48.110;11.660;2024-01-15T04:05:09;8.15;;;4.30;;
79348;SDS011;68817;48.110;11.660;2024-01-15T04:07:35;8.90;;;4.30;;
79348;SDS011;68817;48.110;11.660;2024-01-15T04:10:00;9.50;;;4.72;;
79348;SDS011;68817;48.110;11.660;2024-01-15T04:12:26;8.98;;;5.10;;
79348;SDS011;68817;48.110;11.660;2024-01-15T04:14:51;8.10;;;3.35;;
79348;SDS011;68817;48.110;11.660;2024-01-15T04:17:16;9.48;;;4.05;;
79348;SDS011;68817;48.110;11.660;2024-01-15T04:19:46;7.90;;;3.97;;
79348;SDS011;68817;48.110;11.660;2024-01-15T04:22:13;8.40;;;4.28;;
79348;SDS011;68817;48.110;11.660;2024-01-15T04:24:38;7.32;;;3.17;;
79348;SDS011;68817;48.110;11.660;2024-01-15T04:27:04;6.95;;;4.28;;
79348;SDS011;68817;48.110;11.660;2024-01-15T04:29:29;6.47;;;4.00;;
79348;SDS011;68817;48.110;11.660;2024-01-15T04:31:54;8.77;;;4.20;;
79348;SDS011;68817;48.110;11.660;2024-01-15T04:34:20;8.20;;;4.05;;
79348;SDS011;68817;48.110;11.660;2024-01-15T04:36:45;8.45;;;4.63;;
79348;SDS011;68817;48.110;11.660;2024-01-15T04:39:11;7.53;;;3.92;;
79348;SDS011;68817;48.110;11.660;2024-01-15T04:41:36;8.88;;;4.38;;
79348;SDS011;68817;48.110;11.660;2024-01-15T04:44:02;5.88;;;3.33;;
79348;SDS011;68817;48.110;11.660;2024-01-15T04:46:27;8.18;;;3.38;;
79348;SDS011;68817;48.110;11.660;2024-01-15T04:48:53;6.45;;;3.42;;
79348;SDS011;68817;48.110;11.660;2024-01-15T04:51:18;9.43;;;3.72;;
79348;SDS011;68817;48.110;11.660;2024-01-15T04:53:44;7.05;;;4.00;;
79348;SDS011;68817;48.110;11.660;2024-01-15T04:56:09;6.82;;;3.95;;
79348;SDS011;68817;48.110;11.660;2024-01-15T04:58:34;7.75;;;3.33;;
79348;SDS011;68817;48.110;11.660;2024-01-15T05:01:00;7.72;;;3.42;;
79348;SDS011;68817;48.110;11.660;2024-01-15T05:03:25;8.57;;;3.85;;
79348;SDS011;68817;48.110;11.660;2024-01-15T05:05:51;7.40;;;3.75;;
79348;SDS011;68817;48.110;11.660;2024-01-15T05:08:16;5.88;;;3.55;;
79348;SDS011;68817;48.110;11.660;2024-01-15T05:10:41;5.97;;;3.42;;
79348;SDS011;68817;48.110;11.660;2024-01-15T05:13:07;4.97;;;2.88;;
79348;SDS011;68817;48.110;11.660;2024-01-15T05:15:32;5.80;;;3.35;;
79348;SDS011;68817;48.110;11.660;2024-01-15T05:17:58;5.68;;;3.25;;
79348;SDS011;68817;48.110;11.660;2024-01-15T05:20:23;10.40;;;3.90;;
79348;SDS011;68817;48.110;11.660;2024-01-15T05:22:48;5.90;;;3.22;;
79348;SDS011;68817;48.110;11.660;2024-01-15T05:25:14;6.70;;;3.50;;
79348;SDS011;68817;48.110;11.660;2024-01-15T05:27:39;7.03;;;3.58;;
79348;SDS011;68817;48.110;11.660;2024-01-15T05:30:05;6.38;;;3.40;;
79348;SDS011;68817;48.110;11.660;2024-01-15T05:32:31;6.15;;;3.30;;
79348;SDS011;68817;48.110;11.660;2024-01-15T05:34:57;6.43;;;3.20;;
79348;SDS011;68817;48.110;11.660;2024-01-15T05:37:22;7.63;;;4.13;;
79348;SDS011;68817;48.110;11.660;2024-01-15T05:39:48;6.35;;;2.97;;
79348;SDS011;68817;48.110;11.660;2024-01-15T05:42:13;7.50;;;3.45;;
79348;SDS011;68817;48.110;11.660;2024-01-15T05:44:38;5.22;;;3.00;;
79348;SDS011;68817;48.110;11.660;2024-01-15T05:47:04;6.78;;;3.42;;
79348;SDS011;68817;48.110;11.660;2024-01-15T05:49:29;8.90;;;3.50;;
79348;SDS011;68817;48.110;11.660;2024-01-15T05:51:55;5.55;;;3.25;;
79348;SDS011;68817;48.110;11.660;2024-01-15T05:54:20;7.13;;;3.72;;
79348;SDS011;68817;48.110;11.660;2024-01-15T05:56:46;6.28;;;2.90;;
79348;SDS011;68817;48.110;11.660;2024-01-15T05:59:11;6.30;;;3.30;;
79348;SDS011;68817;48.110;11.660;2024-01-15T06:01:36;6.78;;;3.60;;
79348;SDS011;68817;48.110;11.660;2024-01-15T06:04:02;6.95;;;3.72;;
79348;SDS011;68817;48.110;11.660;2024-01-15T06:06:27;7.50;;;3.67;;
79348;SDS011;68817;48.110;11.660;2024-01-15T06:08:53;7.72;;;3.22;;
79348;SDS011;68817;48.110;11.660;2024-01-15T06:11:18;6.57;;;3.33;;
79348;SDS011;68817;48.110;11.660;2024-01-15T06:13:44;6.28;;;3.38;;
79348;SDS011;68817;48.110;11.660;2024-01-15T06:16:13;5.63;;;3.33;;
79348;SDS011;68817;48.110;11.660;2024-01-15T06:18:39;5.13;;;3.35;;
79348;SDS011;68817;48.110;11.660;2024-01-15T06:21:05;6.05;;;3.05;;
79348;SDS011;68817;48.110;11.660;2024-01-15T06:23:30;5.63;;;2.85;;
79348;SDS011;68817;48.110;11.660;2024-01-15T06:25:56;4.65;;;2.67;;
79348;SDS011;68817;48.110;11.660;2024-01-15T06:28:21;6.28;;;2.83;;
79348;SDS011;68817;48.110;11.660;2024-01-15T06:30:46;6.00;;;3.47;;
79348;SDS011;68817;48.110;11.660;2024-01-15T06:33:12;6.22;;;3.05;;
79348;SDS011;68817;48.110;11.660;2024-01-15T06:35:37;7.20;;;2.95;;
79348;SDS011;68817;48.110;11.660;2024-01-15T06:38:03;7.55;;;3.97;;
79348;SDS011;68817;48.110;11.660;2024-01-15T06:40:28;6.55;;;3.65;;
79348;SDS011;68817;48.110;11.660;2024-01-15T06:42:54;7.80;;;3.38;;
79348;SDS011;68817;48.110;11.660;2024-01-15T06:45:19;3.60;;;2.60;;
79348;SDS011;68817;48.110;11.660;2024-01-15T06:47:44;6.05;;;3.38;;
79348;SDS011;68817;48.110;11.660;2024-01-15T06:50:10;5.85;;;3.15;;
79348;SDS011;68817;48.110;11.660;2024-01-15T06:52:35;6.40;;;3.33;;
79348;SDS011;68817;48.110;11.660;2024-01-15T06:55:01;5.05;;;2.50;;
79348;SDS011;68817;48.110;11.660;2024-01-15T06:57:27;5.82;;;2.97;;
79348;SDS011;68817;48.110;11.660;2024-01-15T06:59:52;6.43;;;3.58;;
79348;SDS011;68817;48.110;11.660;2024-01-15T07:02:17;5.22;;;2.53;;
79348;SDS011;68817;48.110;11.660;2024-01-15T07:04:43;6.35;;;3.45;;
79348;SDS011;68817;48.110;11.660;2024-01-15T07:07:08;7.45;;;3.33;;
79348;SDS011;68817;48.110;11.660;2024-01-15T07:09:34;5.15;;;2.58;;
79348;SDS011;68817;48.110;11.660;2024-01-15T07:11:59;4.82;;;2.95;;
79348;SDS011;68817;48.110;11.660;2024-01-15T07:14:25;6.68;;;3.15;;
79348;SDS011;68817;48.110;11.660;2024-01-15T07:16:51;6.57;;;2.85;;
79348;SDS011;68817;48.110;11.660;2024-01-15T07:19:17;5.90;;;3.22;;
79348;SDS011;68817;48.110;11.660;2024-01-15T07:21:42;6.80;;;3.58;;
79348;SDS011;68817;48.110;11.660;2024-01-15T07:24:08;6.60;;;3.50;;
79348;SDS011;68817;48.110;11.660;2024-01-15T07:26:34;5.07;;;2.88;;
79348;SDS011;68817;48.110;11.660;2024-01-15T07:28:59;7.60;;;3.53;;
79348;SDS011;68817;48.110;11.660;2024-01-15T07:31:24;4.95;;;3.08;;
79348;SDS011;68817;48.110;11.660;2024-01-15T07:33:50;5.57;;;2.90;;
79348;SDS011;68817;48.110;11.660;2024-01-15T07:36:15;7.90;;;3.70;;
79348;SDS011;68817;48.110;11.660;2024-01-15T07:38:41;7.35;;;3.17;;
79348;SDS011;68817;48.110;11.660;2024-01-15T07:41:06;6.47;;;3.65;;
79348;SDS011;68817;48.110;11.660;2024-01-15T07:43:32;7.78;;;3.88;;
79348;SDS011;68817;48.110;11.660;2024-01-15T07:45:57;6.13;;;3.30;;
79348;SDS011;68817;48.110;11.660;2024-01-15T07:48:23;7.20;;;3.50;;
79348;SDS011;68817;48.110;11.660;2024-01-15T07:50:49;7.60;;;3.30;;
79348;SDS011;68817;48.110;11.660;2024-01-15T07:53:14;4.53;;;2.92;;
79348;SDS011;68817;48.110;11.660;2024-01-15T07:55:40;7.43;;;3.85;;
79348;SDS011;68817;48.110;11.660;2024-01-15T07:58:05;6.30;;;3.30;;
79348;SDS011;68817;48.110;11.660;2024-01-15T08:00:31;5.60;;;3.72;;
79348;SDS011;68817;48.110;11.660;2024-01-15T08:02:56;6.45;;;3.50;;
79348;SDS011;68817;48.110;11.660;2024-01-15T08:05:21;8.35;;;3.60;;
79348;SDS011;68817;48.110;11.660;2024-01-15T08:07:47;5.40;;;3.30;;
79348;SDS011;68817;48.110;11.660;2024-01-15T08:10:13;7.07;;;3.92;;
79348;SDS011;68817;48.110;11.660;2024-01-15T08:12:39;5.43;;;3.60;;
79348;SDS011;68817;48.110;11.660;2024-01-15T08:15:04;6.30;;;3.58;;
79348;SDS011;68817;48.110;11.660;2024-01-15T08:17:30;6.65;;;2.95;;
79348;SDS011;68817;48.110;11.660;2024-01-15T08:19:57;7.82;;;3.47;;
79348;SDS011;68817;48.110;11.660;2024-01-15T08:22:22;6.72;;;3.33;;
79348;SDS011;68817;48.110;11.660;2024-01-15T08:24:48;5.93;;;3.05;;
79348;SDS011;68817;48.110;11.660;2024-01-15T08:27:14;7.18;;;3.80;;
79348;SDS011;68817;48.110;11.660;2024-01-15T08:29:39;8.05;;;3.25;;
79348;SDS011;68817;48.110;11.660;2024-01-15T08:32:04;7.30;;;3.10;;
79348;SDS011;68817;48.110;11.660;2024-01-15T08:34:30;6.45;;;3.55;;
79348;SDS011;68817;48.110;11.660;2024-01-15T08:36:56;6.68;;;3.65;;
79348;SDS011;68817;48.110;11.660;2024-01-15T08:39:21;7.05;;;3.92;;
79348;SDS011;68817;48.110;11.660;2024-01-15T08:41:47;5.40;;;3.05;;
79348;SDS011;68817;48.110;11.660;2024-01-15T08:44:12;5.90;;;3.33;;
79348;SDS011;68817;48.110;11.660;2024-01-15T08:46:38;8.38;;;3.45;;
79348;SDS011;68817;48.110;11.660;2024-01-15T08:49:03;6.75;;;3.85;;
79348;SDS011;68817;48.110;11.660;2024-01-15T08:51:29;6.40;;;3.55;;
79348;SDS011;68817;48.110;11.660;2024-01-15T08:53:55;5.85;;;3.55;;
79348;SDS011;68817;48.110;11.660;2024-01-15T08:56:23;7.18;;;4.10;;
79348;SDS011;68817;48.110;11.660;2024-01-15T08:58:48;7.43;;;3.22;;
79348;SDS011;68817;48.110;11.660;2024-01-15T09:01:14;7.28;;;3.50;;
79348;SDS011;68817;48.110;11.660;2024-01-15T09:03:40;8.27;;;2.78;;
79348;SDS011;68817;48.110;11.660;2024-01-15T09:06:07;7.13;;;3.42;;
79348;SDS011;68817;48.110;11.660;2024-01-15T09:08:34;7.03;;;3.35;;
79348;SDS011;68817;48.110;11.660;2024-01-15T09:11:01;7.43;;;3.58;;
79348;SDS011;68817;48.110;11.660;2024-01-15T09:13:28;6.53;;;3.42;;
79348;SDS011;68817;48.110;11.660;2024-01-15T09:15:53;6.95;;;3.50;;
79348;SDS011;68817;48.110;11.660;2024-01-15T09:18:18;7.22;;;3.33;;
79348;SDS011;68817;48.110;11.660;2024-01-15T09:20:44;6.38;;;3.90;;
79348;SDS011;68817;48.110;11.660;2024-01-15T09:23:09;6.78;;;3.80;;
79348;SDS011;68817;48.110;11.660;2024-01-15T09:25:35;6.40;;;3.40;;
79348;SDS011;68817;48.110;11.660;2024-01-15T09:28:00;7.40;;;3.38;;
79348;SDS011;68817;48.110;11.660;2024-01-15T09:30:25;7.43;;;3.60;;
79348;SDS011;68817;48.110;11.660;2024-01-15T09:32:51;9.02;;;3.85;;
79348;SDS011;68817;48.110;11.660;2024-01-15T09:35:16;5.78;;;3.40;;
79348;SDS011;68817;48.110;11.660;2024-01-15T09:37:42;6.15;;;3.17;;
79348;SDS011;68817;48.110;11.660;2024-01-15T09:40:08;6.03;;;3.38;;
79348;SDS011;68817;48.110;11.660;2024-01-15T09:42:33;5.10;;;2.92;;
79348;SDS011;68817;48.110;11.660;2024-01-15T09:44:59;5.72;;;3.00;;
79348;SDS011;68817;48.110;11.660;2024-01-15T09:47:25;6.80;;;3.83;;
79348;SDS011;68817;48.110;11.660;2024-01-15T09:49:50;6.28;;;3.25;;
79348;SDS011;68817;48.110;11.660;2024-01-15T09:52:16;6.60;;;3.33;;
79348;SDS011;68817;48.110;11.660;2024-01-15T09:54:44;5.95;;;3.08;;
79348;SDS011;68817;48.110;11.660;2024-01-15T09:57:10;5.90;;;3.13;;
79348;SDS011;68817;48.110;11.660;2024-01-15T09:59:36;5.35;;;3.10;;
79348;SDS011;68817;48.110;11.660;2024-01-15T10:02:02;5.90;;;3.38;;
79348;SDS011;68817;48.110;11.660;2024-01-15T10:04:28;6.07;;;3.20;;
79348;SDS011;68817;48.110;11.660;2024-01-15T10:06:53;7.20;;;3.72;;
79348;SDS011;68817;48.110;11.660;2024-01-15T10:09:19;5.78;;;2.17;;
79348;SDS011;68817;48.110;11.660;2024-01-15T10:11:45;5.68;;;3.20;;
79348;SDS011;68817;48.110;11.660;2024-01-15T10:14:10;4.68;;;2.75;;
79348;SDS011;68817;48.110;11.660;2024-01-15T10:16:40;5.68;;;3.10;;
79348;SDS011;68817;48.110;11.660;2024-01-15T10:19:05;4.20;;;2.70;;
79348;SDS011;68817;48.110;11.660;2024-01-15T10:21:32;5.30;;;2.95;;
79348;SDS011;68817;48.110;11.660;2024-01-15T10:24:00;4.18;;;2.40;;
79348;SDS011;68817;48.110;11.660;2024-01-15T10:26:26;5.70;;;2.78;;
79348;SDS011;68817;48.110;11.660;2024-01-15T10:28:52;4.88;;;2.42;;
79348;SDS011;68817;48.110;11.660;2024-01-15T10:31:17;3.90;;;2.17;;
79348;SDS011;68817;48.110;11.660;2024-01-15T10:33:44;4.72;;;2.50;;
79348;SDS011;68817;48.110;11.660;2024-01-15T10:36:12;3.72;;;2.00;;
79348;SDS011;68817;48.110;11.660;2024-01-15T10:38:39;4.75;;;2.40;;
79348;SDS011;68817;48.110;11.660;2024-01-15T10:41:04;4.30;;;2.28;;
79348;SDS011;68817;48.110;11.660;2024-01-15T10:43:30;4.57;;;2.05;;
79348;SDS011;68817;48.110;11.660;2024-01-15T10:45:56;3.60;;;2.15;;
79348;SDS011;68817;48.110;11.660;2024-01-15T10:48:24;3.13;;;2.30;;
79348;SDS011;68817;48.110;11.660;2024-01-15T10:50:51;6.20;;;2.58;;
79348;SDS011;68817;48.110;11.660;2024-01-15T10:53:17;4.60;;;2.03;;
79348;SDS011;68817;48.110;11.660;2024-01-15T10:55:43;4.28;;;2.13;;
79348;SDS011;68817;48.110;11.660;2024-01-15T10:58:09;4.55;;;1.85;;
79348;SDS011;68817;48.110;11.660;2024-01-15T11:00:35;3.90;;;1.90;;
79348;SDS011;68817;48.110;11.660;2024-01-15T11:03:03;3.75;;;2.08;;
79348;SDS011;68817;48.110;11.660;2024-01-15T11:05:41;4.03;;;1.90;;
79348;SDS011;68817;48.110;11.660;2024-01-15T11:08:08;3.88;;;2.58;;
79348;SDS011;68817;48.110;11.660;2024-01-15T11:10:38;5.10;;;2.20;;
79348;SDS011;68817;48.110;11.660;2024-01-15T11:13:15;4.20;;;1.88;;
79348;SDS011;68817;48.110;11.660;2024-01-15T11:21:28;3.90;;;2.15;;
79348;SDS011;68817;48.110;11.660;2024-01-15T11:23:58;3.88;;;1.70;;
79348;SDS011;68817;48.110;11.660;2024-01-15T11:29:10;4.22;;;1.80;;
79348;SDS011;68817;48.110;11.660;2024-01-15T11:37:18;2.63;;;1.80;;
79348;SDS011;68817;48.110;11.660;2024-01-15T11:39:44;3.58;;;1.80;;
79348;SDS011;68817;48.110;11.660;2024-01-15T11:42:12;3.70;;;1.50;;
79348;SDS011;68817;48.110;11.660;2024-01-15T11:44:38;4.07;;;1.40;;
79348;SDS011;68817;48.110;11.660;2024-01-15T11:47:08;2.35;;;1.67;;
79348;SDS011;68817;48.110;11.660;2024-01-15T11:52:26;2.50;;;1.67;;
79348;SDS011;68817;48.110;11.660;2024-01-15T11:55:04;4.40;;;1.52;;
79348;SDS011;68817;48.110;11.660;2024-01-15T11:57:57;2.60;;;1.33;;
79348;SDS011;68817;48.110;11.660;2024-01-15T12:00:35;4.50;;;1.60;;
79348;SDS011;68817;48.110;11.660;2024-01-15T12:03:08;3.17;;;1.77;;
79348;SDS011;68817;48.110;11.660;2024-01-15T12:05:36;3.72;;;1.73;;
79348;SDS011;68817;48.110;11.660;2024-01-15T12:08:02;2.35;;;1.40;;
79348;SDS011;68817;48.110;11.660;2024-01-15T12:10:31;2.95;;;1.45;;
79348;SDS011;68817;48.110;11.660;2024-01-15T12:12:58;2.53;;;1.33;;
79348;SDS011;68817;48.110;11.660;2024-01-15T12:15:25;2.70;;;1.52;;
79348;SDS011;68817;48.110;11.660;2024-01-15T12:17:54;2.95;;;1.38;;
79348;SDS011;68817;48.110;11.660;2024-01-15T12:20:27;4.57;;;2.00;;
79348;SDS011;68817;48.110;11.660;2024-01-15T12:22:53;2.55;;;1.50;;
79348;SDS011;68817;48.110;11.660;2024-01-15T12:25:21;3.67;;;1.50;;
79348;SDS011;68817;48.110;11.660;2024-01-15T12:27:48;1.90;;;1.17;;
79348;SDS011;68817;48.110;11.660;2024-01-15T12:30:14;3.45;;;1.95;;
79348;SDS011;68817;48.110;11.660;2024-01-15T12:32:43;3.38;;;1.70;;
79348;SDS011;68817;48.110;11.660;2024-01-15T12:35:09;2.17;;;1.38;;
79348;SDS011;68817;48.110;11.660;2024-01-15T12:37:36;2.35;;;1.30;;
79348;SDS011;68817;48.110;11.660;2024-01-15T12:40:02;3.25;;;1.60;;
79348;SDS011;68817;48.110;11.660;2024-01-15T12:42:31;3.58;;;1.70;;
79348;SDS011;68817;48.110;11.660;2024-01-15T12:44:57;3.63;;;1.40;;
79348;SDS011;68817;48.110;11.660;2024-01-15T12:47:23;4.55;;;1.77;;
79348;SDS011;68817;48.110;11.660;2024-01-15T12:49:48;3.65;;;1.58;;
79348;SDS011;68817;48.110;11.660;2024-01-15T12:52:18;2.65;;;1.50;;
79348;SDS011;68817;48.110;11.660;2024-01-15T12:54:45;2.75;;;1.50;;
79348;SDS011;68817;48.110;11.660;2024-01-15T12:57:10;3.28;;;1.77;;
79348;SDS011;68817;48.110;11.660;2024-01-15T12:59:36;2.75;;;1.83;;
79348;SDS011;68817;48.110;11.660;2024-01-15T13:02:01;2.85;;;1.67;;
79348;SDS011;68817;48.110;11.660;2024-01-15T13:04:27;3.08;;;1.80;;
79348;SDS011;68817;48.110;11.660;2024-01-15T13:06:52;2.50;;;1.67;;
79348;SDS011;68817;48.110;11.660;2024-01-15T13:09:18;2.70;;;1.63;;
79348;SDS011;68817;48.110;11.660;2024-01-15T13:11:46;2.75;;;1.70;;
79348;SDS011;68817;48.110;11.660;2024-01-15T13:14:12;3.10;;;1.58;;
79348;SDS011;68817;48.110;11.660;2024-01-15T13:16:41;3.47;;;2.13;;
79348;SDS011;68817;48.110;11.660;2024-01-15T13:19:10;3.97;;;1.98;;
79348;SDS011;68817;48.110;11.660;2024-01-15T13:21:38;4.00;;;2.40;;
79348;SDS011;68817;48.110;11.660;2024-01-15T13:24:05;4.32;;;1.98;;
79348;SDS011;68817;48.110;11.660;2024-01-15T13:26:34;3.13;;;1.52;;
79348;SDS011;68817;48.110;11.660;2024-01-15T13:29:00;2.60;;;1.67;;
79348;SDS011;68817;48.110;11.660;2024-01-15T13:31:29;3.10;;;1.80;;
79348;SDS011;68817;48.110;11.660;2024-01-15T13:33:58;4.10;;;1.98;;
79348;SDS011;68817;48.110;11.660;2024-01-15T13:36:25;5.13;;;2.22;;
79348;SDS011;68817;48.110;11.660;2024-01-15T13:38:51;4.70;;;2.38;;
79348;SDS011;68817;48.110;11.660;2024-01-15T13:41:18;3.20;;;1.90;;
79348;SDS011;68817;48.110;11.660;2024-01-15T13:43:53;4.13;;;2.50;;
79348;SDS011;68817;48.110;11.660;2024-01-15T13:46:19;2.78;;;1.88;;
79348;SDS011;68817;48.110;11.660;2024-01-15T13:48:45;3.08;;;1.77;;
79348;SDS011;68817;48.110;11.660;2024-01-15T13:51:11;3.35;;;2.10;;
79348;SDS011;68817;48.110;11.660;2024-01-15T13:53:40;4.30;;;2.20;;
79348;SDS011;68817;48.110;11.660;2024-01-15T13:56:06;3.13;;;1.67;;
79348;SDS011;68817;48.110;11.660;2024-01-15T13:58:32;4.07;;;2.42;;
79348;SDS011;68817;48.110;11.660;2024-01-15T14:00:58;4.70;;;2.75;;
79348;SDS011;68817;48.110;11.660;2024-01-15T14:03:24;4.85;;;1.98;;
79348;SDS011;68817;48.110;11.660;2024-01-15T14:05:51;4.47;;;2.67;;
79348;SDS011;68817;48.110;11.660;2024-01-15T14:08:19;4.03;;;2.35;;
79348;SDS011;68817;48.110;11.660;2024-01-15T14:10:44;4.53;;;2.28;;
79348;SDS011;68817;48.110;11.660;2024-01-15T14:13:10;4.70;;;1.70;;
79348;SDS011;68817;48.110;11.660;2024-01-15T14:15:35;4.00;;;2.20;;
79348;SDS011;68817;48.110;11.660;2024-01-15T14:18:02;5.88;;;2.80;;
79348;SDS011;68817;48.110;11.660;2024-01-15T14:20:27;3.92;;;2.35;;
79348;SDS011;68817;48.110;11.660;2024-01-15T14:22:53;4.60;;;2.40;;
79348;SDS011;68817;48.110;11.660;2024-01-15T14:25:19;4.40;;;2.25;;
79348;SDS011;68817;48.110;11.660;2024-01-15T14:27:45;4.63;;;2.45;;
79348;SDS011;68817;48.110;11.660;2024-01-15T14:30:11;4.45;;;2.78;;
79348;SDS011;68817;48.110;11.660;2024-01-15T14:32:38;5.07;;;2.22;;
79348;SDS011;68817;48.110;11.660;2024-01-15T14:35:04;3.72;;;2.25;;
79348;SDS011;68817;48.110;11.660;2024-01-15T14:37:31;3.95;;;2.25;;
79348;SDS011;68817;48.110;11.660;2024-01-15T14:39:56;2.50;;;1.50;;
79348;SDS011;68817;48.110;11.660;2024-01-15T14:42:22;4.10;;;2.20;;
79348;SDS011;68817;48.110;11.660;2024-01-15T14:44:47;3.95;;;1.88;;